sensor_id;sensor_type;location;lat;lon;timestamp;P1;durP1;ratioP1;P2;durP2;ratioP2
46116;SDS011;32591;48.102;11.772;2023-08-06T00:01:08;4.10;;;3.00;;
46116;SDS011;32591;48.102;11.772;2023-08-06T00:03:37;6.90;;;3.35;;
46116;SDS011;32591;48.102;11.772;2023-08-06T00:06:04;6.68;;;3.78;;
46116;SDS011;32591;48.102;11.772;2023-08-06T00:08:32;5.10;;;3.42;;
46116;SDS011;32591;48.102;11.772;2023-08-06T00:10:58;5.07;;;3.58;;
46116;SDS011;32591;48.102;11.772;2023-08-06T00:13:25;5.22;;;3.50;;
46116;SDS011;32591;48.102;11.772;2023-08-06T00:15:52;5.22;;;3.97;;
46116;SDS011;32591;48.102;11.772;2023-08-06T00:18:19;4.57;;;3.30;;
46116;SDS011;32591;48.102;11.772;2023-08-06T00:20:48;4.32;;;3.55;;
46116;SDS011;32591;48.102;11.772;2023-08-06T00:23:14;5.53;;;3.00;;
46116;SDS011;32591;48.102;11.772;2023-08-06T00:25:41;4.15;;;3.22;;
46116;SDS011;32591;48.102;11.772;2023-08-06T00:28:08;9.25;;;3.40;;
46116;SDS011;32591;48.102;11.772;2023-08-06T00:30:35;5.15;;;3.40;;
46116;SDS011;32591;48.102;11.772;2023-08-06T00:33:02;5.10;;;3.40;;
46116;SDS011;32591;48.102;11.772;2023-08-06T00:35:29;4.43;;;3.25;;
46116;SDS011;32591;48.102;11.772;2023-08-06T00:37:58;6.72;;;3.60;;
46116;SDS011;32591;48.102;11.772;2023-08-06T00:40:25;4.80;;;3.63;;
46116;SDS011;32591;48.102;11.772;2023-08-06T00:42:53;5.63;;;3.10;;
46116;SDS011;32591;48.102;11.772;2023-08-06T00:45:20;4.85;;;3.67;;
46116;SDS011;32591;48.102;11.772;2023-08-06T00:47:48;4.88;;;3.60;;
46116;SDS011;32591;48.102;11.772;2023-08-06T00:50:15;6.57;;;3.08;;
46116;SDS011;32591;48.102;11.772;2023-08-06T00:52:42;4.90;;;3.40;;
46116;SDS011;32591;48.102;11.772;2023-08-06T00:55:11;5.03;;;3.38;;
46116;SDS011;32591;48.102;11.772;2023-08-06T00:57:37;5.40;;;3.05;;
46116;SDS011;32591;48.102;11.772;2023-08-06T01:00:05;6.72;;;3.30;;
46116;SDS011;32591;48.102;11.772;2023-08-06T01:02:34;4.30;;;3.38;;
46116;SDS011;32591;48.102;11.772;2023-08-06T01:05:01;5.30;;;3.33;;
46116;SDS011;32591;48.102;11.772;2023-08-06T01:07:32;5.47;;;3.70;;
46116;SDS011;32591;48.102;11.772;2023-08-06T01:10:14;4.32;;;2.92;;
46116;SDS011;32591;48.102;11.772;2023-08-06T01:13:04;4.85;;;3.00;;
46116;SDS011;32591;48.102;11.772;2023-08-06T01:15:41;4.00;;;2.75;;
46116;SDS011;32591;48.102;11.772;2023-08-06T01:18:12;5.60;;;3.45;;
46116;SDS011;32591;48.102;11.772;2023-08-06T01:20:41;4.57;;;3.00;;
46116;SDS011;32591;48.102;11.772;2023-08-06T01:23:08;4.75;;;2.58;;
46116;SDS011;32591;48.102;11.772;2023-08-06T01:25:35;4.05;;;2.90;;
46116;SDS011;32591;48.102;11.772;2023-08-06T01:28:14;10.32;;;4.50;;
46116;SDS011;32591;48.102;11.772;2023-08-06T01:30:49;4.53;;;3.00;;
46116;SDS011;32591;48.102;11.772;2023-08-06T01:33:19;4.65;;;3.10;;
46116;SDS011;32591;48.102;11.772;2023-08-06T01:35:50;4.70;;;3.15;;
46116;SDS011;32591;48.102;11.772;2023-08-06T01:38:19;4.03;;;3.00;;
46116;SDS011;32591;48.102;11.772;2023-08-06T01:40:46;5.25;;;3.20;;
46116;SDS011;32591;48.102;11.772;2023-08-06T01:43:13;5.25;;;3.53;;
46116;SDS011;32591;48.102;11.772;2023-08-06T01:45:40;5.15;;;3.08;;
46116;SDS011;32591;48.102;11.772;2023-08-06T01:48:06;5.65;;;3.08;;
46116;SDS011;32591;48.102;11.772;2023-08-06T01:50:33;4.47;;;3.45;;
46116;SDS011;32591;48.102;11.772;2023-08-06T01:53:02;4.85;;;3.42;;
46116;SDS011;32591;48.102;11.772;2023-08-06T01:55:29;5.97;;;3.58;;
46116;SDS011;32591;48.102;11.772;2023-08-06T01:57:56;6.68;;;4.15;;
46116;SDS011;32591;48.102;11.772;2023-08-06T02:00:23;5.03;;;3.28;;
46116;SDS011;32591;48.102;11.772;2023-08-06T02:02:50;7.60;;;3.67;;
46116;SDS011;32591;48.102;11.772;2023-08-06T02:05:17;7.07;;;3.47;;
46116;SDS011;32591;48.102;11.772;2023-08-06T02:07:43;7.22;;;3.90;;
46116;SDS011;32591;48.102;11.772;2023-08-06T02:10:12;8.30;;;4.65;;
46116;SDS011;32591;48.102;11.772;2023-08-06T02:12:39;7.30;;;3.90;;
46116;SDS011;32591;48.102;11.772;2023-08-06T02:15:06;4.32;;;3.38;;
46116;SDS011;32591;48.102;11.772;2023-08-06T02:17:33;5.43;;;4.00;;
46116;SDS011;32591;48.102;11.772;2023-08-06T02:20:00;5.13;;;3.85;;
46116;SDS011;32591;48.102;11.772;2023-08-06T02:22:27;6.28;;;3.95;;
46116;SDS011;32591;48.102;11.772;2023-08-06T02:24:54;7.25;;;4.15;;
46116;SDS011;32591;48.102;11.772;2023-08-06T02:27:23;8.10;;;4.13;;
46116;SDS011;32591;48.102;11.772;2023-08-06T02:29:50;6.63;;;3.90;;
46116;SDS011;32591;48.102;11.772;2023-08-06T02:32:17;6.00;;;4.00;;
46116;SDS011;32591;48.102;11.772;2023-08-06T02:34:43;6.50;;;3.97;;
46116;SDS011;32591;48.102;11.772;2023-08-06T02:37:11;5.85;;;3.80;;
46116;SDS011;32591;48.102;11.772;2023-08-06T02:39:37;5.45;;;3.45;;
46116;SDS011;32591;48.102;11.772;2023-08-06T02:42:05;4.53;;;3.40;;
46116;SDS011;32591;48.102;11.772;2023-08-06T02:44:34;5.03;;;3.10;;
46116;SDS011;32591;48.102;11.772;2023-08-06T02:47:01;4.22;;;2.90;;
46116;SDS011;32591;48.102;11.772;2023-08-06T02:49:28;3.92;;;2.88;;
46116;SDS011;32591;48.102;11.772;2023-08-06T02:51:55;4.60;;;2.70;;
46116;SDS011;32591;48.102;11.772;2023-08-06T02:54:22;5.03;;;2.95;;
46116;SDS011;32591;48.102;11.772;2023-08-06T02:56:49;3.80;;;2.67;;
46116;SDS011;32591;48.102;11.772;2023-08-06T02:59:16;5.10;;;3.05;;
46116;SDS011;32591;48.102;11.772;2023-08-06T03:01:44;4.43;;;2.90;;
46116;SDS011;32591;48.102;11.772;2023-08-06T03:04:11;4.47;;;2.80;;
46116;SDS011;32591;48.102;11.772;2023-08-06T03:06:38;4.22;;;2.47;;
46116;SDS011;32591;48.102;11.772;2023-08-06T03:09:05;3.72;;;2.60;;
46116;SDS011;32591;48.102;11.772;2023-08-06T03:11:32;6.35;;;2.47;;
46116;SDS011;32591;48.102;11.772;2023-08-06T03:13:59;3.65;;;2.67;;
46116;SDS011;32591;48.102;11.772;2023-08-06T03:16:26;3.60;;;2.17;;
46116;SDS011;32591;48.102;11.772;2023-08-06T03:18:54;3.88;;;2.40;;
46116;SDS011;32591;48.102;11.772;2023-08-06T03:21:21;3.50;;;2.38;;
46116;SDS011;32591;48.102;11.772;2023-08-06T03:23:48;3.83;;;2.33;;
46116;SDS011;32591;48.102;11.772;2023-08-06T03:26:15;6.05;;;3.20;;
46116;SDS011;32591;48.102;11.772;2023-08-06T03:28:42;5.30;;;3.50;;
46116;SDS011;32591;48.102;11.772;2023-08-06T03:31:09;5.55;;;2.75;;
46116;SDS011;32591;48.102;11.772;2023-08-06T03:33:36;3.60;;;2.45;;
46116;SDS011;32591;48.102;11.772;2023-08-06T03:36:04;3.80;;;2.80;;
46116;SDS011;32591;48.102;11.772;2023-08-06T03:38:32;5.05;;;2.70;;
46116;SDS011;32591;48.102;11.772;2023-08-06T03:40:59;4.32;;;2.53;;
46116;SDS011;32591;48.102;11.772;2023-08-06T03:43:26;4.55;;;2.30;;
46116;SDS011;32591;48.102;11.772;2023-08-06T03:45:53;5.43;;;2.80;;
46116;SDS011;32591;48.102;11.772;2023-08-06T03:48:20;5.53;;;2.63;;
46116;SDS011;32591;48.102;11.772;2023-08-06T03:50:46;3.72;;;2.33;;
46116;SDS011;32591;48.102;11.772;2023-08-06T03:53:15;4.20;;;2.40;;
46116;SDS011;32591;48.102;11.772;2023-08-06T03:55:42;4.10;;;2.50;;
46116;SDS011;32591;48.102;11.772;2023-08-06T03:58:09;3.30;;;2.20;;
46116;SDS011;32591;48.102;11.772;2023-08-06T04:00:35;4.47;;;2.30;;
46116;SDS011;32591;48.102;11.772;2023-08-06T04:03:02;5.20;;;2.78;;
46116;SDS011;32591;48.102;11.772;2023-08-06T04:05:30;2.67;;;2.08;;
46116;SDS011;32591;48.102;11.772;2023-08-06T04:07:58;3.53;;;2.42;;
46116;SDS011;32591;48.102;11.772;2023-08-06T04:10:26;4.25;;;2.60;;
46116;SDS011;32591;48.102;11.772;2023-08-06T04:12:53;3.78;;;2.30;;
46116;SDS011;32591;48.102;11.772;2023-08-06T04:15:20;4.28;;;2.10;;
46116;SDS011;32591;48.102;11.772;2023-08-06T04:17:47;3.97;;;2.40;;
46116;SDS011;32591;48.102;11.772;2023-08-06T04:20:14;3.00;;;2.22;;
46116;SDS011;32591;48.102;11.772;2023-08-06T04:22:41;3.80;;;2.10;;
46116;SDS011;32591;48.102;11.772;2023-08-06T04:25:08;4.00;;;2.53;;
46116;SDS011;32591;48.102;11.772;2023-08-06T04:27:37;4.80;;;2.35;;
46116;SDS011;32591;48.102;11.772;2023-08-06T04:30:07;4.00;;;2.40;;
46116;SDS011;32591;48.102;11.772;2023-08-06T04:32:36;6.43;;;2.55;;
46116;SDS011;32591;48.102;11.772;2023-08-06T04:35:04;2.53;;;2.33;;
46116;SDS011;32591;48.102;11.772;2023-08-06T04:37:31;3.85;;;2.35;;
46116;SDS011;32591;48.102;11.772;2023-08-06T04:39:58;4.70;;;2.25;;
46116;SDS011;32591;48.102;11.772;2023-08-06T04:42:25;3.55;;;2.30;;
46116;SDS011;32591;48.102;11.772;2023-08-06T04:44:53;4.88;;;2.00;;
46116;SDS011;32591;48.102;11.772;2023-08-06T04:47:20;3.50;;;2.13;;
46116;SDS011;32591;48.102;11.772;2023-08-06T04:49:47;3.60;;;1.90;;
46116;SDS011;32591;48.102;11.772;2023-08-06T04:52:14;3.35;;;2.30;;
46116;SDS011;32591;48.102;11.772;2023-08-06T04:54:43;5.55;;;2.33;;
46116;SDS011;32591;48.102;11.772;2023-08-06T04:57:10;2.97;;;1.77;;
46116;SDS011;32591;48.102;11.772;2023-08-06T04:59:37;4.38;;;2.10;;
46116;SDS011;32591;48.102;11.772;2023-08-06T05:02:06;3.20;;;2.10;;
46116;SDS011;32591;48.102;11.772;2023-08-06T05:04:33;3.88;;;1.95;;
46116;SDS011;32591;48.102;11.772;2023-08-06T05:07:00;3.28;;;2.28;;
46116;SDS011;32591;48.102;11.772;2023-08-06T05:09:27;5.18;;;2.08;;
46116;SDS011;32591;48.102;11.772;2023-08-06T05:11:54;3.10;;;1.75;;
46116;SDS011;32591;48.102;11.772;2023-08-06T05:14:21;5.45;;;2.00;;
46116;SDS011;32591;48.102;11.772;2023-08-06T05:16:48;2.35;;;1.50;;
46116;SDS011;32591;48.102;11.772;2023-08-06T05:19:16;4.68;;;2.25;;
46116;SDS011;32591;48.102;11.772;2023-08-06T05:21:43;2.15;;;1.58;;
46116;SDS011;32591;48.102;11.772;2023-08-06T05:24:10;3.63;;;1.77;;
46116;SDS011;32591;48.102;11.772;2023-08-06T05:26:37;3.38;;;1.77;;
46116;SDS011;32591;48.102;11.772;2023-08-06T05:29:04;2.90;;;1.90;;
46116;SDS011;32591;48.102;11.772;2023-08-06T05:31:31;3.10;;;1.88;;
46116;SDS011;32591;48.102;11.772;2023-08-06T05:33:58;3.22;;;1.85;;
46116;SDS011;32591;48.102;11.772;2023-08-06T05:36:28;5.05;;;2.13;;
46116;SDS011;32591;48.102;11.772;2023-08-06T05:38:55;4.60;;;2.72;;
46116;SDS011;32591;48.102;11.772;2023-08-06T05:41:21;3.63;;;1.90;;
46116;SDS011;32591;48.102;11.772;2023-08-06T05:43:48;3.78;;;1.75;;
46116;SDS011;32591;48.102;11.772;2023-08-06T05:46:15;3.90;;;2.00;;
46116;SDS011;32591;48.102;11.772;2023-08-06T05:48:42;2.83;;;1.88;;
46116;SDS011;32591;48.102;11.772;2023-08-06T05:51:09;3.47;;;1.50;;
46116;SDS011;32591;48.102;11.772;2023-08-06T05:53:39;2.47;;;1.63;;
46116;SDS011;32591;48.102;11.772;2023-08-06T05:56:06;3.63;;;1.55;;
46116;SDS011;32591;48.102;11.772;2023-08-06T05:58:33;4.03;;;2.70;;
46116;SDS011;32591;48.102;11.772;2023-08-06T06:01:00;2.92;;;1.95;;
46116;SDS011;32591;48.102;11.772;2023-08-06T06:03:27;2.72;;;1.80;;
46116;SDS011;32591;48.102;11.772;2023-08-06T06:05:53;2.40;;;1.48;;
46116;SDS011;32591;48.102;11.772;2023-08-06T06:08:21;4.32;;;1.65;;
46116;SDS011;32591;48.102;11.772;2023-08-06T06:10:49;2.53;;;1.83;;
46116;SDS011;32591;48.102;11.772;2023-08-06T06:13:16;3.78;;;1.70;;
46116;SDS011;32591;48.102;11.772;2023-08-06T06:15:43;2.80;;;1.80;;
46116;SDS011;32591;48.102;11.772;2023-08-06T06:18:10;2.58;;;1.70;;
46116;SDS011;32591;48.102;11.772;2023-08-06T06:20:37;3.22;;;1.88;;
46116;SDS011;32591;48.102;11.772;2023-08-06T06:23:04;2.60;;;1.70;;
46116;SDS011;32591;48.102;11.772;2023-08-06T06:25:31;2.72;;;1.50;;
46116;SDS011;32591;48.102;11.772;2023-08-06T06:27:59;2.03;;;1.50;;
46116;SDS011;32591;48.102;11.772;2023-08-06T06:30:26;3.08;;;1.73;;
46116;SDS011;32591;48.102;11.772;2023-08-06T06:32:53;2.20;;;1.50;;
46116;SDS011;32591;48.102;11.772;2023-08-06T06:35:20;3.33;;;1.73;;
46116;SDS011;32591;48.102;11.772;2023-08-06T06:37:47;3.58;;;1.63;;
46116;SDS011;32591;48.102;11.772;2023-08-06T06:40:14;4.75;;;3.50;;
46116;SDS011;32591;48.102;11.772;2023-08-06T06:42:41;7.00;;;2.95;;
46116;SDS011;32591;48.102;11.772;2023-08-06T06:45:10;4.38;;;2.30;;
46116;SDS011;32591;48.102;11.772;2023-08-06T06:47:37;2.75;;;1.60;;
46116;SDS011;32591;48.102;11.772;2023-08-06T06:50:04;3.63;;;1.70;;
46116;SDS011;32591;48.102;11.772;2023-08-06T06:52:32;1.88;;;1.30;;
46116;SDS011;32591;48.102;11.772;2023-08-06T06:54:59;4.60;;;1.80;;
46116;SDS011;32591;48.102;11.772;2023-08-06T06:57:26;4.25;;;1.50;;
46116;SDS011;32591;48.102;11.772;2023-08-06T06:59:53;1.80;;;1.20;;
46116;SDS011;32591;48.102;11.772;2023-08-06T07:02:21;2.35;;;1.25;;
46116;SDS011;32591;48.102;11.772;2023-08-06T07:04:49;1.77;;;1.35;;
46116;SDS011;32591;48.102;11.772;2023-08-06T07:07:16;5.43;;;1.88;;
46116;SDS011;32591;48.102;11.772;2023-08-06T07:09:44;2.20;;;1.25;;
46116;SDS011;32591;48.102;11.772;2023-08-06T07:12:11;2.03;;;1.30;;
46116;SDS011;32591;48.102;11.772;2023-08-06T07:14:38;4.35;;;1.38;;
46116;SDS011;32591;48.102;11.772;2023-08-06T07:17:05;2.53;;;1.23;;
46116;SDS011;32591;48.102;11.772;2023-08-06T07:19:33;1.73;;;0.90;;
46116;SDS011;32591;48.102;11.772;2023-08-06T07:22:01;1.95;;;1.40;;
46116;SDS011;32591;48.102;11.772;2023-08-06T07:24:28;2.28;;;1.10;;
46116;SDS011;32591;48.102;11.772;2023-08-06T07:26:54;2.53;;;1.63;;
46116;SDS011;32591;48.102;11.772;2023-08-06T07:29:21;3.80;;;1.50;;
46116;SDS011;32591;48.102;11.772;2023-08-06T07:31:49;3.33;;;1.27;;
46116;SDS011;32591;48.102;11.772;2023-08-06T07:34:15;1.70;;;1.10;;
46116;SDS011;32591;48.102;11.772;2023-08-06T07:36:44;2.65;;;1.02;;
46116;SDS011;32591;48.102;11.772;2023-08-06T07:39:12;8.05;;;2.17;;
46116;SDS011;32591;48.102;11.772;2023-08-06T07:41:39;2.45;;;0.80;;
46116;SDS011;32591;48.102;11.772;2023-08-06T07:44:06;2.40;;;0.77;;
46116;SDS011;32591;48.102;11.772;2023-08-06T07:46:33;2.58;;;0.98;;
46116;SDS011;32591;48.102;11.772;2023-08-06T07:49:00;0.70;;;0.30;;
46116;SDS011;32591;48.102;11.772;2023-08-06T07:51:27;1.40;;;0.90;;
46116;SDS011;32591;48.102;11.772;2023-08-06T07:53:56;1.92;;;0.88;;
46116;SDS011;32591;48.102;11.772;2023-08-06T07:56:23;3.35;;;0.70;;
46116;SDS011;32591;48.102;11.772;2023-08-06T07:58:50;3.80;;;1.35;;
46116;SDS011;32591;48.102;11.772;2023-08-06T08:01:17;1.35;;;0.70;;
46116;SDS011;32591;48.102;11.772;2023-08-06T08:03:44;1.27;;;0.63;;
46116;SDS011;32591;48.102;11.772;2023-08-06T08:06:11;1.92;;;0.68;;
46116;SDS011;32591;48.102;11.772;2023-08-06T08:08:37;2.55;;;0.70;;
46116;SDS011;32591;48.102;11.772;2023-08-06T08:11:06;2.47;;;1.10;;
46116;SDS011;32591;48.102;11.772;2023-08-06T08:13:33;3.90;;;1.10;;
46116;SDS011;32591;48.102;11.772;2023-08-06T08:16:00;1.75;;;1.00;;
46116;SDS011;32591;48.102;11.772;2023-08-06T08:18:28;1.63;;;0.85;;
46116;SDS011;32591;48.102;11.772;2023-08-06T08:20:56;0.50;;;0.43;;
46116;SDS011;32591;48.102;11.772;2023-08-06T08:23:25;2.17;;;1.35;;
46116;SDS011;32591;48.102;11.772;2023-08-06T08:25:52;2.63;;;0.90;;
46116;SDS011;32591;48.102;11.772;2023-08-06T08:28:20;1.95;;;0.70;;
46116;SDS011;32591;48.102;11.772;2023-08-06T08:30:47;2.05;;;1.00;;
46116;SDS011;32591;48.102;11.772;2023-08-06T08:33:14;1.48;;;0.80;;
46116;SDS011;32591;48.102;11.772;2023-08-06T08:35:41;3.78;;;1.05;;
46116;SDS011;32591;48.102;11.772;2023-08-06T08:38:08;1.70;;;0.90;;
46116;SDS011;32591;48.102;11.772;2023-08-06T08:40:35;2.25;;;0.93;;
46116;SDS011;32591;48.102;11.772;2023-08-06T08:43:10;1.83;;;0.68;;
46116;SDS011;32591;48.102;11.772;2023-08-06T08:45:40;1.73;;;0.80;;
46116;SDS011;32591;48.102;11.772;2023-08-06T08:48:09;2.65;;;0.68;;
46116;SDS011;32591;48.102;11.772;2023-08-06T08:50:39;2.50;;;1.00;;
46116;SDS011;32591;48.102;11.772;2023-08-06T08:53:06;1.85;;;0.52;;
46116;SDS011;32591;48.102;11.772;2023-08-06T08:55:35;5.28;;;0.70;;
46116;SDS011;32591;48.102;11.772;2023-08-06T08:58:03;2.05;;;0.40;;
46116;SDS011;32591;48.102;11.772;2023-08-06T09:00:30;2.30;;;0.35;;
46116;SDS011;32591;48.102;11.772;2023-08-06T09:02:59;0.93;;;0.30;;
46116;SDS011;32591;48.102;11.772;2023-08-06T09:05:29;2.10;;;0.68;;
46116;SDS011;32591;48.102;11.772;2023-08-06T09:07:57;1.38;;;0.40;;
46116;SDS011;32591;48.102;11.772;2023-08-06T09:10:29;1.30;;;0.47;;
46116;SDS011;32591;48.102;11.772;2023-08-06T09:12:57;1.33;;;0.63;;
46116;SDS011;32591;48.102;11.772;2023-08-06T09:15:26;0.90;;;0.40;;
46116;SDS011;32591;48.102;11.772;2023-08-06T09:17:54;0.90;;;0.40;;
46116;SDS011;32591;48.102;11.772;2023-08-06T09:20:23;1.20;;;0.30;;
46116;SDS011;32591;48.102;11.772;2023-08-06T09:22:52;2.20;;;0.50;;
46116;SDS011;32591;48.102;11.772;2023-08-06T09:25:20;1.13;;;0.30;;
46116;SDS011;32591;48.102;11.772;2023-08-06T09:27:49;1.92;;;0.20;;
46116;SDS011;32591;48.102;11.772;2023-08-06T09:30:28;1.15;;;0.20;;
46116;SDS011;32591;48.102;11.772;2023-08-06T09:32:57;1.25;;;0.30;;
46116;SDS011;32591;48.102;11.772;2023-08-06T09:35:27;1.70;;;0.30;;
46116;SDS011;32591;48.102;11.772;2023-08-06T09:37:55;0.88;;;0.20;;
46116;SDS011;32591;48.102;11.772;2023-08-06T09:40:26;0.10;;;0.10;;
46116;SDS011;32591;48.102;11.772;2023-08-06T09:42:54;0.65;;;0.17;;
46116;SDS011;32591;48.102;11.772;2023-08-06T09:45:21;3.65;;;0.30;;
46116;SDS011;32591;48.102;11.772;2023-08-06T09:47:49;0.77;;;0.10;;
46116;SDS011;32591;48.102;11.772;2023-08-06T09:50:16;0.80;;;0.20;;
46116;SDS011;32591;48.102;11.772;2023-08-06T09:52:45;0.63;;;0.30;;
46116;SDS011;32591;48.102;11.772;2023-08-06T09:55:14;1.35;;;0.35;;
46116;SDS011;32591;48.102;11.772;2023-08-06T09:57:41;0.52;;;0.17;;
46116;SDS011;32591;48.102;11.772;2023-08-06T10:00:09;0.73;;;0.32;;
46116;SDS011;32591;48.102;11.772;2023-08-06T10:02:38;0.57;;;0.28;;
46116;SDS011;32591;48.102;11.772;2023-08-06T10:05:06;0.63;;;0.30;;
46116;SDS011;32591;48.102;11.772;2023-08-06T10:07:34;1.55;;;0.40;;
46116;SDS011;32591;48.102;11.772;2023-08-06T10:10:06;1.23;;;0.38;;
46116;SDS011;32591;48.102;11.772;2023-08-06T10:12:34;0.30;;;0.13;;
46116;SDS011;32591;48.102;11.772;2023-08-06T10:15:06;6.20;;;0.40;;
46116;SDS011;32591;48.102;11.772;2023-08-06T10:17:38;0.45;;;0.15;;
46116;SDS011;32591;48.102;11.772;2023-08-06T10:20:07;0.60;;;0.10;;
46116;SDS011;32591;48.102;11.772;2023-08-06T10:22:35;1.00;;;0.40;;
46116;SDS011;32591;48.102;11.772;2023-08-06T10:25:02;1.33;;;1.02;;
46116;SDS011;32591;48.102;11.772;2023-08-06T10:27:33;2.42;;;0.20;;
46116;SDS011;32591;48.102;11.772;2023-08-06T10:30:22;0.60;;;0.13;;
46116;SDS011;32591;48.102;11.772;2023-08-06T10:32:51;0.75;;;0.13;;
46116;SDS011;32591;48.102;11.772;2023-08-06T10:35:29;0.55;;;0.15;;
46116;SDS011;32591;48.102;11.772;2023-08-06T10:38:03;0.55;;;0.10;;
46116;SDS011;32591;48.102;11.772;2023-08-06T10:40:31;0.10;;;0.10;;
46116;SDS011;32591;48.102;11.772;2023-08-06T10:43:00;0.20;;;0.10;;
46116;SDS011;32591;48.102;11.772;2023-08-06T10:45:28;1.15;;;0.20;;
46116;SDS011;32591;48.102;11.772;2023-08-06T10:47:56;1.67;;;0.25;;
46116;SDS011;32591;48.102;11.772;2023-08-06T10:50:24;7.43;;;1.00;;
46116;SDS011;32591;48.102;11.772;2023-08-06T10:52:51;0.70;;;0.22;;
46116;SDS011;32591;48.102;11.772;2023-08-06T10:55:22;1.55;;;0.20;;
46116;SDS011;32591;48.102;11.772;2023-08-06T10:57:51;0.00;;;0.00;;
46116;SDS011;32591;48.102;11.772;2023-08-06T11:00:20;0.45;;;0.20;;
46116;SDS011;32591;48.102;11.772;2023-08-06T11:02:48;1.92;;;0.10;;
46116;SDS011;32591;48.102;11.772;2023-08-06T11:05:16;0.98;;;0.45;;
46116;SDS011;32591;48.102;11.772;2023-08-06T11:07:43;0.22;;;0.17;;
46116;SDS011;32591;48.102;11.772;2023-08-06T11:10:13;0.50;;;0.10;;
46116;SDS011;32591;48.102;11.772;2023-08-06T11:12:40;0.60;;;0.10;;
46116;SDS011;32591;48.102;11.772;2023-08-06T11:15:08;1.65;;;0.20;;
46116;SDS011;32591;48.102;11.772;2023-08-06T11:17:39;2.47;;;0.32;;
46116;SDS011;32591;48.102;11.772;2023-08-06T11:20:08;0.77;;;0.25;;
46116;SDS011;32591;48.102;11.772;2023-08-06T11:22:36;0.32;;;0.20;;
46116;SDS011;32591;48.102;11.772;2023-08-06T11:25:04;2.17;;;0.22;;
46116;SDS011;32591;48.102;11.772;2023-08-06T11:27:32;0.30;;;0.10;;
46116;SDS011;32591;48.102;11.772;2023-08-06T11:30:00;0.60;;;0.10;;
46116;SDS011;32591;48.102;11.772;2023-08-06T11:32:27;0.30;;;0.20;;
46116;SDS011;32591;48.102;11.772;2023-08-06T11:34:55;1.20;;;0.82;;
46116;SDS011;32591;48.102;11.772;2023-08-06T11:37:23;0.60;;;0.20;;
46116;SDS011;32591;48.102;11.772;2023-08-06T11:39:51;0.17;;;0.00;;
46116;SDS011;32591;48.102;11.772;2023-08-06T11:42:18;1.85;;;0.20;;
46116;SDS011;32591;48.102;11.772;2023-08-06T11:44:45;0.55;;;0.10;;
46116;SDS011;32591;48.102;11.772;2023-08-06T11:47:13;0.52;;;0.00;;
46116;SDS011;32591;48.102;11.772;2023-08-06T11:49:42;0.10;;;0.00;;
46116;SDS011;32591;48.102;11.772;2023-08-06T11:52:16;0.20;;;0.05;;
46116;SDS011;32591;48.102;11.772;2023-08-06T11:54:46;0.40;;;0.10;;
46116;SDS011;32591;48.102;11.772;2023-08-06T11:57:14;0.32;;;0.20;;
46116;SDS011;32591;48.102;11.772;2023-08-06T11:59:42;0.00;;;0.00;;
46116;SDS011;32591;48.102;11.772;2023-08-06T12:02:09;0.32;;;0.10;;
46116;SDS011;32591;48.102;11.772;2023-08-06T12:07:32;0.00;;;0.00;;
46116;SDS011;32591;48.102;11.772;2023-08-06T12:10:03;0.20;;;0.10;;
46116;SDS011;32591;48.102;11.772;2023-08-06T12:12:31;0.28;;;0.10;;
46116;SDS011;32591;48.102;11.772;2023-08-06T12:14:58;0.10;;;0.10;;
46116;SDS011;32591;48.102;11.772;2023-08-06T12:17:25;0.43;;;0.15;;
46116;SDS011;32591;48.102;11.772;2023-08-06T12:19:53;1.25;;;0.10;;
46116;SDS011;32591;48.102;11.772;2023-08-06T12:22:20;0.08;;;0.08;;
46116;SDS011;32591;48.102;11.772;2023-08-06T12:24:48;0.00;;;0.00;;
46116;SDS011;32591;48.102;11.772;2023-08-06T12:27:15;1.42;;;0.20;;
46116;SDS011;32591;48.102;11.772;2023-08-06T12:29:43;0.43;;;0.20;;
46116;SDS011;32591;48.102;11.772;2023-08-06T12:32:12;0.10;;;0.10;;
46116;SDS011;32591;48.102;11.772;2023-08-06T12:34:40;0.82;;;0.30;;
46116;SDS011;32591;48.102;11.772;2023-08-06T12:37:08;0.32;;;0.22;;
46116;SDS011;32591;48.102;11.772;2023-08-06T12:39:36;1.20;;;0.60;;
46116;SDS011;32591;48.102;11.772;2023-08-06T12:42:05;0.25;;;0.05;;
46116;SDS011;32591;48.102;11.772;2023-08-06T12:44:32;0.30;;;0.00;;
46116;SDS011;32591;48.102;11.772;2023-08-06T12:46:59;0.25;;;0.20;;
46116;SDS011;32591;48.102;11.772;2023-08-06T12:49:26;0.13;;;0.10;;
46116;SDS011;32591;48.102;11.772;2023-08-06T12:51:54;0.25;;;0.10;;
46116;SDS011;32591;48.102;11.772;2023-08-06T12:54:22;0.10;;;0.10;;
46116;SDS011;32591;48.102;11.772;2023-08-06T12:56:49;0.08;;;0.08;;
46116;SDS011;32591;48.102;11.772;2023-08-06T12:59:18;0.68;;;0.43;;
46116;SDS011;32591;48.102;11.772;2023-08-06T13:01:45;0.10;;;0.03;;
46116;SDS011;32591;48.102;11.772;2023-08-06T13:04:13;1.25;;;0.75;;
46116;SDS011;32591;48.102;11.772;2023-08-06T13:06:40;3.88;;;0.40;;
46116;SDS011;32591;48.102;11.772;2023-08-06T13:09:07;1.90;;;0.15;;
46116;SDS011;32591;48.102;11.772;2023-08-06T13:11:35;2.83;;;0.20;;
46116;SDS011;32591;48.102;11.772;2023-08-06T13:14:04;0.10;;;0.10;;
46116;SDS011;32591;48.102;11.772;2023-08-06T13:16:34;0.30;;;0.20;;
46116;SDS011;32591;48.102;11.772;2023-08-06T13:19:02;0.10;;;0.10;;
46116;SDS011;32591;48.102;11.772;2023-08-06T13:21:31;0.10;;;0.00;;
46116;SDS011;32591;48.102;11.772;2023-08-06T13:24:00;0.30;;;0.20;;
46116;SDS011;32591;48.102;11.772;2023-08-06T13:26:28;0.22;;;0.22;;
46116;SDS011;32591;48.102;11.772;2023-08-06T13:28:56;0.03;;;0.03;;
46116;SDS011;32591;48.102;11.772;2023-08-06T13:31:24;1.65;;;0.10;;
46116;SDS011;32591;48.102;11.772;2023-08-06T13:33:53;0.93;;;0.10;;
46116;SDS011;32591;48.102;11.772;2023-08-06T13:36:23;0.10;;;0.00;;
46116;SDS011;32591;48.102;11.772;2023-08-06T13:38:50;0.22;;;0.17;;
46116;SDS011;32591;48.102;11.772;2023-08-06T13:41:17;1.75;;;0.40;;
46116;SDS011;32591;48.102;11.772;2023-08-06T13:43:45;0.45;;;0.20;;
46116;SDS011;32591;48.102;11.772;2023-08-06T13:46:12;0.10;;;0.10;;
46116;SDS011;32591;48.102;11.772;2023-08-06T13:48:41;0.20;;;0.10;;
46116;SDS011;32591;48.102;11.772;2023-08-06T13:51:10;0.25;;;0.10;;
46116;SDS011;32591;48.102;11.772;2023-08-06T13:53:38;0.63;;;0.10;;
46116;SDS011;32591;48.102;11.772;2023-08-06T13:56:05;2.53;;;0.30;;
46116;SDS011;32591;48.102;11.772;2023-08-06T13:58:34;0.17;;;0.17;;
46116;SDS011;32591;48.102;11.772;2023-08-06T14:01:01;0.10;;;0.10;;
46116;SDS011;32591;48.102;11.772;2023-08-06T14:03:28;0.10;;;0.10;;
46116;SDS011;32591;48.102;11.772;2023-08-06T14:05:55;0.20;;;0.15;;
46116;SDS011;32591;48.102;11.772;2023-08-06T14:08:24;0.30;;;0.20;;
46116;SDS011;32591;48.102;11.772;2023-08-06T14:10:51;0.38;;;0.25;;
46116;SDS011;32591;48.102;11.772;2023-08-06T14:13:19;1.25;;;0.20;;
46116;SDS011;32591;48.102;11.772;2023-08-06T14:15:47;0.40;;;0.20;;
46116;SDS011;32591;48.102;11.772;2023-08-06T14:18:14;0.10;;;0.10;;
46116;SDS011;32591;48.102;11.772;2023-08-06T14:20:41;1.00;;;0.38;;
46116;SDS011;32591;48.102;11.772;2023-08-06T14:23:09;0.15;;;0.10;;
46116;SDS011;32591;48.102;11.772;2023-08-06T14:25:38;0.38;;;0.20;;
46116;SDS011;32591;48.102;11.772;2023-08-06T14:28:05;0.60;;;0.30;;
46116;SDS011;32591;48.102;11.772;2023-08-06T14:30:32;0.13;;;0.10;;
46116;SDS011;32591;48.102;11.772;2023-08-06T14:32:59;0.70;;;0.20;;
46116;SDS011;32591;48.102;11.772;2023-08-06T14:35:27;0.60;;;0.43;;
46116;SDS011;32591;48.102;11.772;2023-08-06T14:37:54;0.20;;;0.10;;
46116;SDS011;32591;48.102;11.772;2023-08-06T14:40:21;0.17;;;0.17;;